Time;durP1;ratioP1;P1;durP2;ratioP2;P2;SDS_P1;SDS_P2;PMS_P1;PMS_P2;Temp;Humidity;BMP_temperature;BMP_pressure;BME280_temperature;BME280_humidity;BME280_pressure;Samples;Min_cycle;Max_cycle;Signal;HPM_P1;HPM_P2
2023/11/26 00:01:53;;;;;;;0.90;0.90;;;-4.80;99.90;;;;;;5069526;28;20200;-68
2023/11/26 00:04:21;;;;;;;0.80;0.80;;;-4.80;99.90;;;;;;5070799;28;20247;-67
2023/11/26 00:06:47;;;;;;;0.82;0.82;;;-4.90;99.90;;;;;;5070984;28;20200;-67
2023/11/26 00:09:13;;;;;;;0.80;0.80;;;-4.90;99.90;;;;;;5070977;28;20189;-68
2023/11/26 00:11:38;;;;;;;0.85;0.85;;;-5.00;99.90;;;;;;5070489;28;20216;-68
2023/11/26 00:14:04;;;;;;;0.88;0.88;;;-5.10;99.90;;;;;;5070970;28;20207;-67
2023/11/26 00:16:37;;;;;;;0.80;0.80;;;-5.10;99.90;;;;;;5070382;28;20201;-68
2023/11/26 00:19:03;;;;;;;0.80;0.80;;;-5.10;99.90;;;;;;5053868;28;20239;-68
2023/11/26 00:21:29;;;;;;;0.75;0.75;;;-5.10;99.90;;;;;;5050313;28;20197;-68
2023/11/26 00:23:55;;;;;;;0.90;0.90;;;-5.10;99.90;;;;;;5050603;28;20202;-68
2023/11/26 00:26:21;;;;;;;0.80;0.80;;;-5.10;99.90;;;;;;5050735;28;20190;-67
2023/11/26 00:28:47;;;;;;;0.80;0.80;;;-5.10;99.90;;;;;;5049173;28;20612;-68
2023/11/26 00:31:13;;;;;;;0.90;0.90;;;-5.10;99.90;;;;;;5050229;28;20273;-67
2023/11/26 00:33:43;;;;;;;0.80;0.80;;;-5.10;99.90;;;;;;5050418;28;20236;-68
2023/11/26 00:36:11;;;;;;;1.58;1.30;;;-5.20;99.90;;;;;;5052402;28;20189;-68
2023/11/26 00:38:37;;;;;;;0.80;0.80;;;-5.20;99.90;;;;;;5052442;28;20271;-68
2023/11/26 00:41:02;;;;;;;0.90;0.90;;;-5.20;99.90;;;;;;5050261;28;20672;-67
2023/11/26 00:43:28;;;;;;;0.90;0.90;;;-5.10;99.90;;;;;;5050054;28;20224;-67
2023/11/26 00:45:53;;;;;;;0.80;0.80;;;-5.20;99.90;;;;;;5049866;28;20194;-67
2023/11/26 00:48:19;;;;;;;0.80;0.80;;;-5.20;99.90;;;;;;5053966;28;20207;-67
2023/11/26 00:50:45;;;;;;;0.75;0.75;;;-5.30;99.90;;;;;;5069586;28;20192;-67
2023/11/26 00:53:10;;;;;;;0.80;0.80;;;-5.30;99.90;;;;;;5069833;28;20201;-68
2023/11/26 00:55:36;;;;;;;0.85;0.85;;;-5.40;99.90;;;;;;5066043;28;20236;-67
2023/11/26 00:58:02;;;;;;;0.80;0.80;;;-5.30;99.90;;;;;;5049620;28;20204;-68
2023/11/26 01:00:28;;;;;;;0.90;0.90;;;-5.30;99.90;;;;;;5050171;28;20279;-69
2023/11/26 01:02:54;;;;;;;0.90;0.90;;;-5.40;99.90;;;;;;5049864;28;20209;-69
2023/11/26 01:05:20;;;;;;;0.70;0.70;;;-5.50;99.90;;;;;;5049624;28;20193;-69
2023/11/26 01:07:46;;;;;;;0.82;0.82;;;-5.50;99.90;;;;;;5049939;28;20555;-69
2023/11/26 01:10:11;;;;;;;0.70;0.70;;;-5.60;99.90;;;;;;5049612;28;20202;-68
2023/11/26 01:12:37;;;;;;;1.00;1.00;;;-5.70;99.90;;;;;;5047975;28;20209;-69
2023/11/26 01:15:06;;;;;;;0.90;0.90;;;-5.60;99.90;;;;;;5063956;28;20243;-69
2023/11/26 01:17:32;;;;;;;0.93;0.93;;;-5.60;99.90;;;;;;5069507;28;20201;-69
2023/11/26 01:19:58;;;;;;;0.70;0.70;;;-5.60;99.90;;;;;;5069377;28;20632;-68
2023/11/26 01:22:26;;;;;;;0.90;0.90;;;-5.70;99.90;;;;;;5069231;28;20578;-68
2023/11/26 01:24:52;;;;;;;0.87;0.87;;;-5.80;99.90;;;;;;5069378;28;20537;-69
2023/11/26 01:27:18;;;;;;;0.87;0.87;;;-5.80;99.90;;;;;;5069212;28;20201;-69
2023/11/26 01:29:43;;;;;;;0.90;0.90;;;-5.90;99.90;;;;;;5069340;28;20232;-69
2023/11/26 01:32:09;;;;;;;0.90;0.90;;;-5.90;99.90;;;;;;5069389;28;20201;-69
2023/11/26 01:34:35;;;;;;;0.97;0.97;;;-6.00;99.90;;;;;;5068974;28;20204;-69
2023/11/26 01:37:00;;;;;;;0.87;0.87;;;-6.10;99.90;;;;;;5068978;28;20196;-68
2023/11/26 01:39:26;;;;;;;0.90;0.90;;;-6.20;99.90;;;;;;5068927;28;20205;-69
2023/11/26 01:41:52;;;;;;;0.80;0.80;;;-6.30;99.90;;;;;;5069362;28;20279;-68
2023/11/26 01:44:18;;;;;;;0.90;0.90;;;-6.30;99.90;;;;;;5068990;28;20203;-69
2023/11/26 01:46:43;;;;;;;0.70;0.70;;;-6.00;99.90;;;;;;5069048;28;20250;-69
2023/11/26 01:49:09;;;;;;;0.90;0.90;;;-5.90;99.90;;;;;;5069050;28;20201;-69
2023/11/26 01:51:35;;;;;;;1.00;1.00;;;-6.00;99.90;;;;;;5068668;28;20667;-69
2023/11/26 01:54:03;;;;;;;0.90;0.90;;;-6.10;99.90;;;;;;5068936;28;20346;-68
2023/11/26 01:56:29;;;;;;;0.70;0.70;;;-6.10;99.90;;;;;;5068634;28;20258;-69
2023/11/26 01:58:56;;;;;;;0.90;0.90;;;-6.10;99.90;;;;;;5068983;28;20537;-68
2023/11/26 02:01:23;;;;;;;0.90;0.90;;;-6.20;99.90;;;;;;5068603;28;20195;-68
2023/11/26 02:03:49;;;;;;;0.70;0.70;;;-6.20;99.90;;;;;;5068581;28;20208;-68
2023/11/26 02:06:16;;;;;;;0.80;0.80;;;-6.00;99.90;;;;;;5069719;28;20709;-68
2023/11/26 02:08:42;;;;;;;0.80;0.80;;;-6.00;99.90;;;;;;5075243;28;20224;-69
2023/11/26 02:11:08;;;;;;;0.77;0.77;;;-6.10;99.90;;;;;;5062231;28;20213;-69
2023/11/26 02:13:54;;;;;;;0.80;0.80;;;-6.20;99.90;;;;;;5055443;28;20200;-69
2023/11/26 02:16:20;;;;;;;0.70;0.70;;;-6.30;99.90;;;;;;5053458;28;20213;-69
2023/11/26 02:18:46;;;;;;;0.80;0.80;;;-6.40;99.90;;;;;;5055213;28;20717;-69
2023/11/26 02:21:12;;;;;;;0.90;0.90;;;-6.60;99.90;;;;;;5054486;28;20584;-69
2023/11/26 02:23:38;;;;;;;0.90;0.90;;;-6.70;99.90;;;;;;5053716;28;20217;-70
2023/11/26 02:26:10;;;;;;;0.80;0.80;;;-6.70;99.90;;;;;;5055142;28;20212;-69
2023/11/26 02:28:37;;;;;;;0.90;0.90;;;-6.80;99.90;;;;;;5054494;28;20193;-69
2023/11/26 02:31:04;;;;;;;0.80;0.80;;;-6.80;99.90;;;;;;5055145;28;20234;-69
2023/11/26 02:33:32;;;;;;;0.87;0.87;;;-6.80;99.90;;;;;;5054983;28;20250;-69
2023/11/26 02:35:58;;;;;;;0.90;0.90;;;-6.70;99.90;;;;;;5055122;28;20193;-69
2023/11/26 02:38:24;;;;;;;0.80;0.80;;;-6.60;99.90;;;;;;5070406;28;20655;-69
2023/11/26 02:40:49;;;;;;;0.80;0.80;;;-6.50;99.90;;;;;;5075134;28;20200;-68
2023/11/26 02:43:18;;;;;;;0.90;0.90;;;-6.30;99.90;;;;;;5073779;28;20217;-69
2023/11/26 02:45:45;;;;;;;0.80;0.80;;;-6.20;99.90;;;;;;5075097;28;20219;-69
2023/11/26 02:48:11;;;;;;;0.80;0.80;;;-6.00;99.90;;;;;;5073304;28;20200;-69
2023/11/26 02:50:36;;;;;;;0.87;0.87;;;-6.00;99.90;;;;;;5074780;28;20201;-69
2023/11/26 02:53:02;;;;;;;0.80;0.80;;;-6.00;99.90;;;;;;5073441;28;20229;-69
2023/11/26 02:55:28;;;;;;;0.80;0.80;;;-6.10;99.90;;;;;;5075033;28;20200;-68
2023/11/26 02:57:54;;;;;;;0.90;0.90;;;-6.10;99.90;;;;;;5074828;28;20719;-68
2023/11/26 03:00:20;;;;;;;0.80;0.80;;;-6.00;99.90;;;;;;5074859;28;20204;-68
2023/11/26 03:02:47;;;;;;;0.80;0.80;;;-6.00;99.90;;;;;;5074760;28;20208;-68
2023/11/26 03:05:21;;;;;;;0.80;0.80;;;-5.90;99.90;;;;;;5074789;28;20200;-68
2023/11/26 03:07:50;;;;;;;0.90;0.90;;;-5.90;99.90;;;;;;5058368;28;20200;-68
2023/11/26 03:13:07;;;;;;;1.00;1.00;;;-5.70;99.90;;;;;;5055407;28;20232;-68
2023/11/26 03:15:37;;;;;;;0.90;0.90;;;-5.60;99.90;;;;;;5054870;28;20229;-68
2023/11/26 03:18:04;;;;;;;0.90;0.90;;;-5.60;99.90;;;;;;5050802;28;20251;-68
2023/11/26 03:20:31;;;;;;;0.80;0.80;;;-5.50;99.90;;;;;;5051565;28;20208;-69
2023/11/26 03:22:58;;;;;;;0.80;0.80;;;-5.50;99.90;;;;;;5049981;28;20217;-69
2023/11/26 03:25:24;;;;;;;0.80;0.80;;;-5.50;99.90;;;;;;5051254;28;20194;-70
2023/11/26 03:27:54;;;;;;;0.80;0.80;;;-5.60;99.90;;;;;;5051575;28;20575;-69
2023/11/26 03:30:20;;;;;;;0.90;0.90;;;-5.60;99.90;;;;;;5049686;28;20209;-69
2023/11/26 03:32:46;;;;;;;0.80;0.80;;;-5.60;99.90;;;;;;5051293;28;20213;-69
2023/11/26 03:35:12;;;;;;;0.90;0.90;;;-5.60;99.90;;;;;;5051240;28;20201;-69
2023/11/26 03:37:38;;;;;;;0.80;0.80;;;-5.60;99.90;;;;;;5060146;28;20201;-69
2023/11/26 03:40:08;;;;;;;0.90;0.90;;;-5.70;99.90;;;;;;5071144;28;20203;-69
2023/11/26 03:42:36;;;;;;;0.80;0.80;;;-5.80;99.90;;;;;;5071144;28;20208;-70
2023/11/26 03:45:04;;;;;;;0.80;0.80;;;-5.90;99.90;;;;;;5062746;28;21024;-69
2023/11/26 03:47:29;;;;;;;0.90;0.90;;;-5.90;99.90;;;;;;5051144;28;20284;-69
2023/11/26 03:49:55;;;;;;;0.80;0.80;;;-5.90;99.90;;;;;;5051016;28;20280;-70
2023/11/26 03:52:21;;;;;;;0.80;0.80;;;-6.00;99.90;;;;;;5050633;28;20350;-69
2023/11/26 03:54:47;;;;;;;0.90;0.90;;;-5.90;99.90;;;;;;5050877;28;20220;-69
2023/11/26 03:57:13;;;;;;;0.90;0.90;;;-5.90;99.90;;;;;;5051065;28;20198;-69
2023/11/26 03:59:42;;;;;;;0.90;0.90;;;-5.90;99.90;;;;;;5050854;28;20223;-69
2023/11/26 04:02:08;;;;;;;0.95;0.95;;;-6.00;99.90;;;;;;5058622;28;20326;-69
2023/11/26 04:04:34;;;;;;;0.80;0.80;;;-6.10;99.90;;;;;;5070449;28;20898;-69
2023/11/26 04:07:00;;;;;;;0.80;0.80;;;-6.20;99.90;;;;;;5070653;28;20656;-70
2023/11/26 04:09:26;;;;;;;0.93;0.93;;;-6.30;99.90;;;;;;5070595;28;20554;-69
2023/11/26 04:11:56;;;;;;;0.90;0.90;;;-6.40;99.90;;;;;;5070682;28;20200;-70
2023/11/26 04:14:32;;;;;;;0.90;0.90;;;-6.50;99.90;;;;;;5070598;28;20200;-69
2023/11/26 04:16:58;;;;;;;0.80;0.80;;;-6.50;99.90;;;;;;5070610;28;20238;-69
2023/11/26 04:19:24;;;;;;;0.90;0.90;;;-6.40;99.90;;;;;;5070520;28;20189;-69
2023/11/26 04:21:50;;;;;;;0.90;0.90;;;-6.40;99.90;;;;;;5070810;28;20197;-70
2023/11/26 04:24:18;;;;;;;1.00;1.00;;;-6.40;99.90;;;;;;5070715;28;20302;-70
2023/11/26 04:26:44;;;;;;;0.90;0.90;;;-6.30;99.90;;;;;;5070401;28;20199;-70
2023/11/26 04:29:10;;;;;;;0.77;0.77;;;-6.40;99.90;;;;;;5070069;28;20291;-70
2023/11/26 04:31:36;;;;;;;0.80;0.80;;;-6.40;99.90;;;;;;5070291;28;20276;-68
2023/11/26 04:34:02;;;;;;;0.80;0.80;;;-6.40;99.90;;;;;;5068764;28;20299;-68
2023/11/26 04:36:28;;;;;;;0.90;0.90;;;-6.50;99.90;;;;;;5070239;28;20200;-68
2023/11/26 04:38:54;;;;;;;0.80;0.80;;;-6.50;99.90;;;;;;5069986;28;20240;-68
2023/11/26 04:41:21;;;;;;;0.80;0.80;;;-6.50;99.90;;;;;;5069729;28;20240;-67
2023/11/26 04:43:48;;;;;;;0.80;0.80;;;-6.40;99.90;;;;;;5070083;28;20714;-68
2023/11/26 04:46:14;;;;;;;0.85;0.85;;;-6.30;99.90;;;;;;5070052;28;20217;-69
2023/11/26 04:48:40;;;;;;;0.80;0.80;;;-6.40;99.90;;;;;;5070114;28;20247;-68
2023/11/26 04:51:09;;;;;;;0.80;0.80;;;-6.40;99.90;;;;;;5069809;28;20622;-68
2023/11/26 04:53:36;;;;;;;0.90;0.90;;;-6.50;99.90;;;;;;5069612;28;20582;-68
2023/11/26 04:56:03;;;;;;;1.00;1.00;;;-6.60;99.90;;;;;;5069731;28;20181;-67
2023/11/26 04:58:29;;;;;;;0.82;0.82;;;-6.70;99.90;;;;;;5069833;28;20730;-68
2023/11/26 05:00:54;;;;;;;0.90;0.90;;;-6.80;99.90;;;;;;5069720;28;20193;-68
2023/11/26 05:03:22;;;;;;;0.82;0.82;;;-6.90;99.90;;;;;;5069303;28;20299;-67
2023/11/26 05:05:49;;;;;;;0.90;0.90;;;-7.00;99.90;;;;;;5069456;28;20674;-67
2023/11/26 05:08:16;;;;;;;0.80;0.80;;;-6.90;99.90;;;;;;5049725;28;20197;-68
2023/11/26 05:10:41;;;;;;;0.90;0.90;;;-6.90;99.90;;;;;;5049588;28;20190;-68
2023/11/26 05:13:08;;;;;;;0.90;0.90;;;-6.90;99.90;;;;;;5049667;28;20299;-68
2023/11/26 05:15:33;;;;;;;0.80;0.80;;;-6.90;99.90;;;;;;5049317;28;20217;-68
2023/11/26 05:17:59;;;;;;;0.90;0.90;;;-6.90;99.90;;;;;;5049356;28;20205;-69
2023/11/26 05:20:26;;;;;;;0.90;0.90;;;-7.00;99.90;;;;;;5049276;28;20197;-68
2023/11/26 05:22:53;;;;;;;0.90;0.90;;;-7.00;99.90;;;;;;5049604;28;20205;-67
2023/11/26 05:25:20;;;;;;;1.00;1.00;;;-7.10;99.90;;;;;;5049340;28;20216;-67
2023/11/26 05:27:46;;;;;;;0.90;0.90;;;-7.20;99.90;;;;;;5049659;28;20243;-69
2023/11/26 05:30:12;;;;;;;0.88;0.88;;;-7.30;99.90;;;;;;5058034;28;20570;-68
2023/11/26 05:32:37;;;;;;;0.80;0.80;;;-7.40;99.90;;;;;;5068888;28;20197;-68
2023/11/26 05:35:12;;;;;;;0.90;0.90;;;-7.40;99.90;;;;;;5069058;28;20250;-68
2023/11/26 05:37:39;;;;;;;0.90;0.90;;;-7.50;99.90;;;;;;5068198;28;20262;-68
2023/11/26 05:40:06;;;;;;;0.90;0.90;;;-7.50;99.90;;;;;;5069068;28;20189;-68
2023/11/26 05:42:32;;;;;;;0.80;0.80;;;-7.60;99.90;;;;;;5068931;28;20200;-68
2023/11/26 05:44:58;;;;;;;0.93;0.93;;;-7.70;99.90;;;;;;5069079;28;20724;-68
2023/11/26 05:47:23;;;;;;;0.87;0.87;;;-7.60;99.90;;;;;;5068923;28;20193;-69
2023/11/26 05:49:49;;;;;;;0.82;0.82;;;-7.60;99.90;;;;;;5068931;28;20288;-68
2023/11/26 05:52:15;;;;;;;0.90;0.90;;;-7.60;99.90;;;;;;5069355;28;20243;-67
2023/11/26 05:54:40;;;;;;;0.90;0.90;;;-7.50;99.90;;;;;;5069140;28;20196;-69
2023/11/26 05:57:06;;;;;;;0.80;0.80;;;-7.50;99.90;;;;;;5055080;28;20205;-68
2023/11/26 05:59:31;;;;;;;0.80;0.80;;;-7.60;99.90;;;;;;5048740;28;20201;-68
2023/11/26 06:01:57;;;;;;;1.00;1.00;;;-7.60;99.90;;;;;;5048740;28;20204;-68
2023/11/26 06:04:23;;;;;;;0.70;0.70;;;-7.60;99.90;;;;;;5048566;28;20527;-68
2023/11/26 06:06:48;;;;;;;0.90;0.90;;;-7.70;99.90;;;;;;5048548;28;20680;-69
2023/11/26 06:09:14;;;;;;;0.80;0.80;;;-7.70;99.90;;;;;;5048620;28;20201;-68
2023/11/26 06:11:39;;;;;;;0.90;0.90;;;-7.80;99.90;;;;;;5048516;28;20193;-67
2023/11/26 06:14:05;;;;;;;4.20;2.87;;;-7.80;99.90;;;;;;5049218;28;20209;-68
2023/11/26 06:16:31;;;;;;;0.90;0.90;;;-7.80;99.90;;;;;;5048315;28;20299;-68
2023/11/26 06:18:56;;;;;;;0.90;0.90;;;-7.80;99.90;;;;;;5048696;28;20210;-68
2023/11/26 06:21:23;;;;;;;0.80;0.80;;;-7.90;99.90;;;;;;5048732;28;20292;-67
2023/11/26 06:23:49;;;;;;;0.90;0.90;;;-7.90;99.90;;;;;;5048480;28;20710;-68
2023/11/26 06:26:16;;;;;;;0.90;0.90;;;-8.00;99.90;;;;;;5056040;28;20669;-67
2023/11/26 06:28:42;;;;;;;1.00;1.00;;;-8.00;99.90;;;;;;5068427;28;20181;-67
2023/11/26 06:31:08;;;;;;;0.87;0.87;;;-8.00;99.90;;;;;;5068711;28;20192;-68
2023/11/26 06:33:33;;;;;;;0.90;0.90;;;-8.10;99.90;;;;;;5061869;28;20275;-67
2023/11/26 06:36:00;;;;;;;0.80;0.80;;;-8.10;99.90;;;;;;5048369;28;20189;-68
2023/11/26 06:38:25;;;;;;;0.80;0.80;;;-8.10;99.90;;;;;;5063750;28;20201;-67
2023/11/26 06:40:51;;;;;;;0.80;0.80;;;-8.00;99.90;;;;;;5068486;28;20609;-68
2023/11/26 06:43:17;;;;;;;0.80;0.80;;;-8.00;99.90;;;;;;5068418;28;20631;-68
2023/11/26 06:45:42;;;;;;;1.10;1.10;;;-8.00;99.90;;;;;;5068224;28;20197;-68
2023/11/26 06:48:08;;;;;;;0.90;0.90;;;-8.00;99.90;;;;;;5068874;28;20759;-67
2023/11/26 06:50:35;;;;;;;0.90;0.90;;;-8.00;99.90;;;;;;5068343;28;20221;-68
2023/11/26 06:53:00;;;;;;;0.83;0.83;;;-8.10;99.90;;;;;;5057735;28;20754;-69
2023/11/26 06:55:26;;;;;;;0.90;0.90;;;-8.10;99.90;;;;;;5052203;28;20190;-68
2023/11/26 06:57:52;;;;;;;0.87;0.87;;;-8.10;99.90;;;;;;5052013;28;20198;-69
2023/11/26 07:00:18;;;;;;;0.80;0.80;;;-8.10;99.90;;;;;;5052134;28;20197;-68
2023/11/26 07:02:44;;;;;;;0.90;0.90;;;-8.10;99.90;;;;;;5050477;28;20217;-69
2023/11/26 07:05:09;;;;;;;0.73;0.73;;;-8.00;99.90;;;;;;5051817;28;20200;-68
2023/11/26 07:07:35;;;;;;;0.90;0.90;;;-8.00;99.90;;;;;;5051594;28;20219;-69
2023/11/26 07:10:01;;;;;;;1.00;1.00;;;-8.00;99.90;;;;;;5051882;28;20196;-69
2023/11/26 07:12:29;;;;;;;1.00;1.00;;;-8.00;99.90;;;;;;5051906;28;20594;-69
2023/11/26 07:14:55;;;;;;;0.90;0.90;;;-8.00;99.90;;;;;;5051858;28;20209;-68
2023/11/26 07:17:24;;;;;;;1.00;1.00;;;-8.10;99.90;;;;;;5051529;28;20738;-69
2023/11/26 07:19:51;;;;;;;0.90;0.90;;;-8.10;99.90;;;;;;5051632;28;20328;-69
2023/11/26 07:22:17;;;;;;;0.90;0.90;;;-8.20;99.90;;;;;;5057232;28;20197;-69
2023/11/26 07:24:42;;;;;;;0.97;0.97;;;-8.20;99.90;;;;;;5071588;28;20245;-68
2023/11/26 07:27:08;;;;;;;0.90;0.90;;;-8.30;99.90;;;;;;5071632;28;20253;-69
2023/11/26 07:29:34;;;;;;;0.90;0.90;;;-8.30;99.90;;;;;;5066523;28;20198;-68
2023/11/26 07:32:00;;;;;;;0.90;0.90;;;-8.30;99.90;;;;;;5052074;28;20280;-67
2023/11/26 07:34:26;;;;;;;0.90;0.90;;;-8.30;99.90;;;;;;5051342;28;20190;-67
2023/11/26 07:36:51;;;;;;;1.00;1.00;;;-8.10;99.90;;;;;;5053862;28;20218;-67
2023/11/26 07:39:17;;;;;;;0.90;0.90;;;-8.10;99.90;;;;;;5071237;28;20690;-67
2023/11/26 07:41:46;;;;;;;1.00;1.00;;;-8.10;99.90;;;;;;5071440;28;20666;-67
2023/11/26 07:44:13;;;;;;;1.10;1.10;;;-8.10;99.90;;;;;;5069742;28;20209;-67
2023/11/26 07:46:40;;;;;;;1.30;1.20;;;-8.20;99.90;;;;;;5071133;28;20201;-67
2023/11/26 07:49:05;;;;;;;1.23;1.20;;;-8.20;99.90;;;;;;5071346;28;20201;-67
2023/11/26 07:51:31;;;;;;;0.80;0.80;;;-8.30;99.90;;;;;;5070876;28;20567;-67
2023/11/26 07:53:57;;;;;;;0.90;0.90;;;-8.30;99.90;;;;;;5070992;28;20196;-67
2023/11/26 07:56:23;;;;;;;0.90;0.90;;;-8.30;99.90;;;;;;5070990;28;20225;-67
2023/11/26 07:58:49;;;;;;;0.80;0.80;;;-8.30;99.90;;;;;;5071014;28;20211;-67
2023/11/26 08:01:15;;;;;;;0.90;0.90;;;-8.30;99.90;;;;;;5071153;28;20205;-68
2023/11/26 08:03:40;;;;;;;1.43;1.33;;;-8.30;99.90;;;;;;5070216;28;20687;-67
2023/11/26 08:06:10;;;;;;;0.90;0.90;;;-8.20;99.90;;;;;;5070966;28;20201;-68
2023/11/26 08:08:37;;;;;;;1.00;1.00;;;-8.20;99.90;;;;;;5070741;28;20267;-68
2023/11/26 08:11:05;;;;;;;0.80;0.80;;;-8.20;99.90;;;;;;5070970;28;20626;-68
2023/11/26 08:13:33;;;;;;;0.90;0.90;;;-8.20;99.90;;;;;;5070822;28;20557;-68
2023/11/26 08:16:00;;;;;;;0.90;0.90;;;-8.20;99.90;;;;;;5070528;28;20570;-67
2023/11/26 08:18:25;;;;;;;0.80;0.80;;;-8.10;99.90;;;;;;5070344;28;20200;-67
2023/11/26 08:20:53;;;;;;;0.90;0.90;;;-8.10;99.90;;;;;;5069100;28;20296;-66
2023/11/26 08:23:19;;;;;;;0.80;0.80;;;-8.10;99.90;;;;;;5070243;28;20596;-67
2023/11/26 08:25:44;;;;;;;0.90;0.90;;;-8.10;99.90;;;;;;5070042;28;20200;-68
2023/11/26 08:28:11;;;;;;;0.80;0.80;;;-8.10;99.90;;;;;;5070219;28;20201;-67
2023/11/26 08:30:47;;;;;;;0.90;0.90;;;-8.10;99.90;;;;;;5070108;28;20587;-67
2023/11/26 08:33:17;;;;;;;0.80;0.80;;;-8.10;99.90;;;;;;5070130;28;20211;-68
2023/11/26 08:35:43;;;;;;;0.90;0.90;;;-8.00;99.90;;;;;;5070295;28;20299;-68
2023/11/26 08:38:09;;;;;;;0.90;0.90;;;-8.00;99.90;;;;;;5069745;28;20288;-67
2023/11/26 08:40:38;;;;;;;0.90;0.90;;;-8.00;99.90;;;;;;5069930;28;20197;-67
2023/11/26 08:43:13;;;;;;;0.90;0.90;;;-8.00;99.90;;;;;;5069961;28;20659;-67
2023/11/26 08:45:42;;;;;;;0.90;0.90;;;-8.00;99.90;;;;;;5069722;28;20572;-68
2023/11/26 08:48:10;;;;;;;0.90;0.90;;;-8.00;99.90;;;;;;5068434;28;20688;-68
2023/11/26 08:50:36;;;;;;;0.90;0.90;;;-8.00;99.90;;;;;;5070076;28;20555;-67
2023/11/26 08:53:05;;;;;;;0.80;0.80;;;-7.90;99.90;;;;;;5069918;28;20249;-69
2023/11/26 08:55:32;;;;;;;0.90;0.90;;;-7.90;99.90;;;;;;5068117;28;20209;-68
2023/11/26 08:57:58;;;;;;;1.00;1.00;;;-7.90;99.90;;;;;;5068385;28;20204;-67
2023/11/26 09:00:25;;;;;;;1.53;1.43;;;-7.90;99.90;;;;;;5052167;28;20209;-67
2023/11/26 09:02:50;;;;;;;0.80;0.80;;;-7.80;99.90;;;;;;5049929;28;20692;-67
2023/11/26 09:05:16;;;;;;;0.80;0.80;;;-7.80;99.90;;;;;;5049923;28;20368;-67
2023/11/26 09:07:44;;;;;;;0.90;0.90;;;-7.80;99.90;;;;;;5049589;28;20288;-67
2023/11/26 09:10:11;;;;;;;0.80;0.80;;;-7.70;99.90;;;;;;5048695;28;20289;-68
2023/11/26 09:12:37;;;;;;;0.80;0.80;;;-7.70;99.90;;;;;;5049446;28;20197;-67
2023/11/26 09:15:07;;;;;;;0.80;0.80;;;-7.70;99.90;;;;;;5057040;28;20226;-67
2023/11/26 09:17:33;;;;;;;0.90;0.90;;;-7.70;99.90;;;;;;5068672;28;20196;-67
2023/11/26 09:19:58;;;;;;;1.00;1.00;;;-7.60;99.90;;;;;;5069278;28;20223;-67
2023/11/26 09:22:24;;;;;;;0.87;0.87;;;-7.60;99.90;;;;;;5069037;28;20253;-67
2023/11/26 09:24:50;;;;;;;1.50;1.40;;;-7.50;99.90;;;;;;5069332;28;20200;-68
2023/11/26 09:27:16;;;;;;;0.83;0.83;;;-7.50;99.90;;;;;;5069318;28;20609;-67
2023/11/26 09:29:42;;;;;;;0.90;0.90;;;-7.50;99.90;;;;;;5068964;28;20227;-68
2023/11/26 09:32:08;;;;;;;0.90;0.90;;;-7.40;99.90;;;;;;5069177;28;20224;-67
2023/11/26 09:34:34;;;;;;;0.90;0.90;;;-7.20;99.90;;;;;;5069056;28;20686;-67
2023/11/26 09:37:04;;;;;;;0.90;0.90;;;-7.00;99.90;;;;;;5069132;28;20235;-67
2023/11/26 09:39:33;;;;;;;0.83;0.83;;;-6.90;99.90;;;;;;5069207;28;20185;-67
2023/11/26 09:42:00;;;;;;;0.80;0.80;;;-6.90;99.90;;;;;;5069133;28;20553;-67
2023/11/26 09:44:26;;;;;;;0.87;0.87;;;-6.90;99.90;;;;;;5069074;28;20288;-67
2023/11/26 09:46:51;;;;;;;0.90;0.90;;;-6.70;99.90;;;;;;5069133;28;20660;-67
2023/11/26 09:49:17;;;;;;;0.90;0.90;;;-6.60;99.90;;;;;;5067674;28;20245;-68
2023/11/26 09:51:47;;;;;;;1.00;1.00;;;-6.40;99.90;;;;;;5067458;28;20224;-69
2023/11/26 09:54:16;;;;;;;0.83;0.83;;;-6.30;99.90;;;;;;5069026;28;20694;-69
2023/11/26 09:56:43;;;;;;;0.80;0.80;;;-6.20;99.90;;;;;;5050641;28;20712;-69
2023/11/26 09:59:24;;;;;;;0.73;0.73;;;-6.00;99.90;;;;;;5048804;28;20208;-69
2023/11/26 10:01:49;;;;;;;0.80;0.80;;;-5.90;99.90;;;;;;5048901;28;20205;-68
2023/11/26 10:04:15;;;;;;;0.90;0.90;;;-5.80;99.90;;;;;;5048688;28;20238;-68
2023/11/26 10:06:41;;;;;;;0.90;0.90;;;-5.60;99.90;;;;;;5048764;28;20216;-69
2023/11/26 10:09:18;;;;;;;0.80;0.80;;;-5.50;99.90;;;;;;5048689;28;20204;-68
2023/11/26 10:11:45;;;;;;;0.90;0.90;;;-5.50;99.90;;;;;;5060198;28;20200;-68
2023/11/26 10:14:21;;;;;;;0.70;0.70;;;-5.40;99.90;;;;;;5068639;28;20235;-68
2023/11/26 10:16:47;;;;;;;0.90;0.90;;;-5.40;99.90;;;;;;5068455;28;21019;-69
2023/11/26 10:19:24;;;;;;;0.70;0.70;;;-5.20;99.90;;;;;;5056536;28;20205;-69
2023/11/26 10:21:53;;;;;;;0.88;0.88;;;-5.20;99.90;;;;;;5048723;28;20205;-68
2023/11/26 10:24:20;;;;;;;0.90;0.90;;;-5.20;99.90;;;;;;5048510;28;20202;-68
2023/11/26 10:26:45;;;;;;;0.80;0.80;;;-5.10;99.90;;;;;;5048657;28;20193;-68
2023/11/26 10:29:12;;;;;;;0.80;0.80;;;-5.00;99.90;;;;;;5052479;28;20192;-68
2023/11/26 10:32:06;;;;;;;0.90;0.90;;;-5.00;99.90;;;;;;5052410;28;20217;-68
2023/11/26 10:34:33;;;;;;;0.88;0.88;;;-4.90;99.90;;;;;;5052295;28;20197;-68
2023/11/26 10:37:00;;;;;;;0.80;0.80;;;-4.80;99.90;;;;;;5055870;28;20341;-68
2023/11/26 10:39:25;;;;;;;0.80;0.80;;;-4.80;99.90;;;;;;5072299;28;20200;-68
2023/11/26 10:41:51;;;;;;;0.70;0.70;;;-4.70;99.90;;;;;;5072420;28;20207;-68
2023/11/26 10:44:18;;;;;;;0.90;0.90;;;-4.70;99.90;;;;;;5072340;28;20205;-68
2023/11/26 10:46:48;;;;;;;0.73;0.73;;;-4.60;99.90;;;;;;5072495;28;20193;-67
2023/11/26 10:49:34;;;;;;;0.70;0.70;;;-4.50;99.90;;;;;;5072258;28;20902;-68
2023/11/26 10:52:08;;;;;;;0.90;0.90;;;-4.50;99.90;;;;;;5062074;28;20214;-68
2023/11/26 10:54:57;;;;;;;0.90;0.90;;;-4.50;99.90;;;;;;5051915;28;20189;-68
2023/11/26 10:57:38;;;;;;;0.68;0.68;;;-4.40;99.90;;;;;;5051786;28;20186;-68
2023/11/26 11:00:08;;;;;;;1.00;1.00;;;-4.40;99.90;;;;;;5052142;28;20224;-68
2023/11/26 11:02:36;;;;;;;0.80;0.80;;;-4.40;99.90;;;;;;5052052;28;20647;-68
2023/11/26 11:05:06;;;;;;;1.92;1.83;;;-4.40;99.90;;;;;;5052173;28;20217;-68
2023/11/26 11:07:34;;;;;;;0.90;0.90;;;-4.40;99.90;;;;;;5059377;28;20651;-68
2023/11/26 11:10:24;;;;;;;1.05;1.05;;;-4.40;99.90;;;;;;5071721;28;20304;-68
2023/11/26 11:13:03;;;;;;;0.73;0.73;;;-4.40;99.90;;;;;;5071902;28;20196;-68
2023/11/26 11:15:30;;;;;;;0.80;0.80;;;-4.40;99.90;;;;;;5059454;28;20216;-68
2023/11/26 11:17:56;;;;;;;0.88;0.88;;;-4.40;99.90;;;;;;5051545;28;20209;-68
2023/11/26 11:21:05;;;;;;;0.80;0.80;;;-4.40;99.90;;;;;;5051566;28;20202;-68
2023/11/26 11:23:44;;;;;;;0.82;0.82;;;-4.40;99.90;;;;;;5051949;28;20209;-68
2023/11/26 11:26:11;;;;;;;1.30;1.23;;;-4.50;99.90;;;;;;5051692;28;20189;-68
2023/11/26 11:28:40;;;;;;;0.90;0.90;;;-4.50;99.90;;;;;;5051385;28;20272;-69
2023/11/26 11:31:08;;;;;;;0.90;0.90;;;-4.50;99.90;;;;;;5051688;28;20214;-68
2023/11/26 11:33:33;;;;;;;0.80;0.80;;;-4.50;99.90;;;;;;5051442;28;20703;-68
2023/11/26 11:36:03;;;;;;;0.80;0.80;;;-4.50;99.90;;;;;;5051290;28;20201;-68
2023/11/26 11:38:30;;;;;;;0.75;0.75;;;-4.50;99.90;;;;;;5066334;28;20201;-68
2023/11/26 11:41:09;;;;;;;1.25;1.23;;;-4.50;99.90;;;;;;5071600;28;20225;-68
2023/11/26 11:43:39;;;;;;;0.80;0.80;;;-4.50;99.90;;;;;;5071008;28;20261;-68
2023/11/26 11:46:27;;;;;;;0.80;0.80;;;-4.40;99.90;;;;;;5069532;28;20226;-69
2023/11/26 11:48:53;;;;;;;0.80;0.80;;;-4.40;99.90;;;;;;5070813;28;20224;-68
2023/11/26 11:51:40;;;;;;;0.88;0.88;;;-4.40;99.90;;;;;;5070613;28;20268;-68
2023/11/26 11:54:09;;;;;;;0.80;0.80;;;-4.40;99.90;;;;;;5071052;28;20195;-68
2023/11/26 11:56:42;;;;;;;0.85;0.85;;;-4.40;99.90;;;;;;5071017;28;20664;-68
2023/11/26 11:59:09;;;;;;;0.90;0.90;;;-4.40;99.90;;;;;;5070863;28;20193;-68
2023/11/26 12:01:36;;;;;;;0.90;0.90;;;-4.40;99.90;;;;;;5070761;28;20231;-67
2023/11/26 12:04:02;;;;;;;0.80;0.80;;;-4.30;99.90;;;;;;5071051;28;20204;-68
2023/11/26 12:06:29;;;;;;;0.75;0.75;;;-4.30;99.90;;;;;;5066527;28;20730;-68
2023/11/26 12:08:59;;;;;;;0.82;0.82;;;-4.40;99.90;;;;;;5050929;28;20193;-68
2023/11/26 12:11:25;;;;;;;3.10;1.48;;;-4.30;99.90;;;;;;5050739;28;20216;-67
2023/11/26 12:13:51;;;;;;;0.82;0.82;;;-4.30;99.90;;;;;;5051337;28;20209;-68
2023/11/26 12:16:20;;;;;;;0.90;0.90;;;-4.30;99.90;;;;;;5051137;28;20225;-67
2023/11/26 12:18:46;;;;;;;1.10;1.10;;;-4.30;99.90;;;;;;5050722;28;20661;-67
2023/11/26 12:21:13;;;;;;;0.80;0.80;;;-4.30;99.90;;;;;;5050706;28;20193;-67
2023/11/26 12:23:39;;;;;;;0.80;0.80;;;-4.40;99.90;;;;;;5050431;28;20216;-68
2023/11/26 12:26:06;;;;;;;0.82;0.82;;;-4.40;99.90;;;;;;5049188;28;21032;-68
2023/11/26 12:28:47;;;;;;;0.85;0.85;;;-4.40;99.90;;;;;;5050376;28;20247;-68
2023/11/26 12:31:14;;;;;;;0.85;0.85;;;-4.40;99.90;;;;;;5050659;28;20248;-68
2023/11/26 12:33:43;;;;;;;0.80;0.80;;;-4.50;99.90;;;;;;5050570;28;20220;-67
2023/11/26 12:36:12;;;;;;;0.70;0.70;;;-4.50;99.90;;;;;;5050582;28;20204;-67
2023/11/26 12:38:39;;;;;;;0.90;0.90;;;-4.40;99.90;;;;;;5067340;28;20207;-66
2023/11/26 12:41:07;;;;;;;0.80;0.80;;;-4.40;99.90;;;;;;5070309;28;20195;-67
2023/11/26 12:43:33;;;;;;;0.70;0.70;;;-4.40;99.90;;;;;;5068011;28;20240;-67
2023/11/26 12:46:13;;;;;;;0.80;0.80;;;-4.40;99.90;;;;;;5049019;28;20202;-67
2023/11/26 12:48:39;;;;;;;0.80;0.80;;;-4.40;99.90;;;;;;5050113;28;20201;-67
2023/11/26 12:51:06;;;;;;;0.80;0.80;;;-4.40;99.90;;;;;;5049978;28;20717;-68
2023/11/26 12:53:32;;;;;;;0.80;0.80;;;-4.40;99.90;;;;;;5050113;28;20541;-67